This is the latest recevied weather packets stored in our database for station/object KK6LVQ-13. If no packets are shown the sender has not sent any weather packets the latest 10 day(s).
| Time | Temp. | Humidity | Pressure | Rain* | Wind** | Luminosity | Snow |
|---|---|---|---|---|---|---|---|
| 1778093436 | 19.44° C | 67% | 1024.8 hPa | 0 mm | - | 781 W/m² | - |
| 1778093133 | 19.44° C | 67% | 1024.9 hPa | 0 mm | - | 821 W/m² | - |
| 1778092830 | 20° C | 66% | 1024.9 hPa | 0 mm | - | 764 W/m² | - |
| 1778092526 | 20° C | 64% | 1024.9 hPa | 0 mm | - | 729 W/m² | - |
| 1778092223 | 20° C | 65% | 1024.8 hPa | 0 mm | - | 735 W/m² | - |
| 1778091921 | 20.56° C | 64% | 1025 hPa | 0 mm | - | 721 W/m² | - |
| 1778091617 | 19.44° C | 66% | 1025 hPa | 0 mm | - | 711 W/m² | - |
| 1778091315 | 19.44° C | 66% | 1025.1 hPa | 0 mm | - | 694 W/m² | - |
| 1778091012 | 20° C | 65% | 1025 hPa | 0 mm | - | 683 W/m² | - |
| 1778090709 | 20° C | 65% | 1025 hPa | 0 mm | - | 677 W/m² | - |
| 1778090405 | 18.89° C | 68% | 1025 hPa | 0 mm | - | 669 W/m² | - |
| 1778090102 | 18.33° C | 70% | 1025.2 hPa | 0 mm | - | 671 W/m² | - |
| 1778089798 | 19.44° C | 68% | 1025.1 hPa | 0 mm | - | 657 W/m² | - |
| 1778089497 | 18.89° C | 68% | 1025.3 hPa | 0 mm | - | 640 W/m² | - |
| 1778089192 | 18.33° C | 71% | 1025.1 hPa | 0 mm | - | 642 W/m² | - |
| 1778088891 | 17.78° C | 73% | 1025.2 hPa | 0 mm | - | 625 W/m² | - |
| 1778088587 | 17.78° C | 72% | 1025 hPa | 0 mm | - | 605 W/m² | - |
| 1778088285 | 17.22° C | 75% | 1025.2 hPa | 0 mm | - | 594 W/m² | - |
| 1778087981 | 17.22° C | 73% | 1025.4 hPa | 0 mm | - | 580 W/m² | - |
| 1778087678 | 16.67° C | 73% | 1025.3 hPa | 0 mm | - | 568 W/m² | - |
| 1778087376 | 17.22° C | 74% | 1025.5 hPa | 0 mm | - | 555 W/m² | - |
| 1778087071 | 17.22° C | 75% | 1025.5 hPa | 0 mm | - | 543 W/m² | - |
| 1778086765 | 16.67° C | 76% | 1025.4 hPa | 0 mm | - | 529 W/m² | - |
| 1778086463 | 17.22° C | 75% | 1025.5 hPa | 0 mm | - | 517 W/m² | - |
| 1778086159 | 16.67° C | 75% | 1025.5 hPa | 0 mm | - | 511 W/m² | - |
* Rain latest hour (hover to see other rain measurements)
** Current wind speed in m/s (hover to see current wind gust speed)